KAPF/APF METAR and TAF weather

Enter ICAO airport designator
Station Type Date Time Source
KAPF METAR 2020/09/18 15:53 UTC NOAA

KAPF 181553Z 20009KT 10SM FEW023 31/26 A2992 RMK AO2 SLP131 T03110261


Station Type Date Time Source
KAPF Decoded METAR 2020/09/18 15:53 UTC NOAA

NAPLES MUNICIPAL AIRPORT, FL, United States (KAPF) 26-09N 081-46W
Sep 18, 2020 - 11:53 AM EDT / 2020.09.18 1553 UTC
Wind: from the SSW (200 degrees) at 10 MPH (9 KT):0
Visibility: 10 mile(s):0
Sky conditions: mostly clear
Temperature: 88.0 F (31.1 C)
Heat index: 102.6 F (39.2 C):1
Dew Point: 79.0 F (26.1 C)
Relative Humidity: 74%
Pressure (altimeter): 29.92 in. Hg (1013 hPa)
ob: KAPF 181553Z 20009KT 10SM FEW023 31/26 A2992 RMK AO2 SLP131 T03110261
cycle: 16

Station Type Date Time Source
KAPF TAF 2020/09/18 15:04 UTC NOAA

TAF
AMD KAPF 181501Z 1815/1912 19008KT P6SM SCT025 BKN250
FM181600 22008KT P6SM VCSH FEW025 FEW250
FM182000 25009KT P6SM VCTS SCT025CB SCT250
FM182300 32004KT P6SM VCTS FEW025CB SCT250
FM190100 VRB03KT P6SM FEW020 SCT200

Example: see airport list